sensor_id;sensor_type;location;lat;lon;timestamp;P1;durP1;ratioP1;P2;durP2;ratioP2
32786;SDS011;19139;49.372;8.580;2022-12-18T00:01:13;13.03;;;10.03;;
32786;SDS011;19139;49.372;8.580;2022-12-18T00:03:45;15.63;;;10.90;;
32786;SDS011;19139;49.372;8.580;2022-12-18T00:06:12;12.83;;;9.87;;
32786;SDS011;19139;49.372;8.580;2022-12-18T00:08:42;17.43;;;9.40;;
32786;SDS011;19139;49.372;8.580;2022-12-18T00:11:12;13.27;;;9.87;;
32786;SDS011;19139;49.372;8.580;2022-12-18T00:13:40;12.03;;;9.40;;
32786;SDS011;19139;49.372;8.580;2022-12-18T00:16:15;13.73;;;10.33;;
32786;SDS011;19139;49.372;8.580;2022-12-18T00:18:47;12.07;;;9.70;;
32786;SDS011;19139;49.372;8.580;2022-12-18T00:21:14;12.13;;;9.23;;
32786;SDS011;19139;49.372;8.580;2022-12-18T00:23:43;12.37;;;9.13;;
32786;SDS011;19139;49.372;8.580;2022-12-18T00:26:11;16.77;;;10.07;;
32786;SDS011;19139;49.372;8.580;2022-12-18T00:28:41;13.07;;;9.43;;
32786;SDS011;19139;49.372;8.580;2022-12-18T00:31:09;13.53;;;9.97;;
32786;SDS011;19139;49.372;8.580;2022-12-18T00:33:37;11.53;;;9.23;;
32786;SDS011;19139;49.372;8.580;2022-12-18T00:36:19;13.47;;;9.87;;
32786;SDS011;19139;49.372;8.580;2022-12-18T00:38:46;11.43;;;9.77;;
32786;SDS011;19139;49.372;8.580;2022-12-18T00:41:14;12.90;;;9.10;;
32786;SDS011;19139;49.372;8.580;2022-12-18T00:44:02;11.90;;;9.30;;
32786;SDS011;19139;49.372;8.580;2022-12-18T00:46:29;13.37;;;10.20;;
32786;SDS011;19139;49.372;8.580;2022-12-18T00:48:56;11.30;;;9.53;;
32786;SDS011;19139;49.372;8.580;2022-12-18T00:51:23;13.67;;;10.03;;
32786;SDS011;19139;49.372;8.580;2022-12-18T00:53:51;11.07;;;9.63;;
32786;SDS011;19139;49.372;8.580;2022-12-18T00:56:18;13.03;;;9.47;;
32786;SDS011;19139;49.372;8.580;2022-12-18T00:58:45;11.70;;;9.43;;
32786;SDS011;19139;49.372;8.580;2022-12-18T01:01:11;13.83;;;9.03;;
32786;SDS011;19139;49.372;8.580;2022-12-18T01:03:38;12.77;;;10.10;;
32786;SDS011;19139;49.372;8.580;2022-12-18T01:06:07;13.23;;;9.13;;
32786;SDS011;19139;49.372;8.580;2022-12-18T01:08:35;12.77;;;9.27;;
32786;SDS011;19139;49.372;8.580;2022-12-18T01:11:07;12.23;;;9.43;;
32786;SDS011;19139;49.372;8.580;2022-12-18T01:13:38;12.13;;;9.27;;
32786;SDS011;19139;49.372;8.580;2022-12-18T01:16:06;13.87;;;9.00;;
32786;SDS011;19139;49.372;8.580;2022-12-18T01:18:33;13.40;;;9.13;;
32786;SDS011;19139;49.372;8.580;2022-12-18T01:20:59;13.03;;;10.83;;
32786;SDS011;19139;49.372;8.580;2022-12-18T01:23:26;12.23;;;8.60;;
32786;SDS011;19139;49.372;8.580;2022-12-18T01:25:53;13.77;;;10.03;;
32786;SDS011;19139;49.372;8.580;2022-12-18T01:28:19;13.87;;;11.07;;
32786;SDS011;19139;49.372;8.580;2022-12-18T01:30:46;15.20;;;9.90;;
32786;SDS011;19139;49.372;8.580;2022-12-18T01:33:12;12.93;;;9.47;;
32786;SDS011;19139;49.372;8.580;2022-12-18T01:35:40;13.73;;;9.13;;
32786;SDS011;19139;49.372;8.580;2022-12-18T01:38:08;11.00;;;8.67;;
32786;SDS011;19139;49.372;8.580;2022-12-18T01:40:34;12.10;;;9.63;;
32786;SDS011;19139;49.372;8.580;2022-12-18T01:43:01;10.80;;;9.20;;
32786;SDS011;19139;49.372;8.580;2022-12-18T01:45:28;11.40;;;8.70;;
32786;SDS011;19139;49.372;8.580;2022-12-18T01:50:24;11.63;;;9.30;;
32786;SDS011;19139;49.372;8.580;2022-12-18T01:53:11;11.40;;;10.20;;
32786;SDS011;19139;49.372;8.580;2022-12-18T01:56:01;12.20;;;8.90;;
32786;SDS011;19139;49.372;8.580;2022-12-18T01:58:31;11.97;;;9.27;;
32786;SDS011;19139;49.372;8.580;2022-12-18T02:01:04;12.07;;;9.43;;
32786;SDS011;19139;49.372;8.580;2022-12-18T02:03:31;13.23;;;9.60;;
32786;SDS011;19139;49.372;8.580;2022-12-18T02:11:22;11.63;;;9.27;;
32786;SDS011;19139;49.372;8.580;2022-12-18T02:14:10;11.07;;;8.63;;
32786;SDS011;19139;49.372;8.580;2022-12-18T02:22:27;11.60;;;9.50;;
32786;SDS011;19139;49.372;8.580;2022-12-18T02:27:42;10.13;;;8.80;;
32786;SDS011;19139;49.372;8.580;2022-12-18T02:30:12;10.70;;;9.23;;
32786;SDS011;19139;49.372;8.580;2022-12-18T02:32:40;11.27;;;9.03;;
32786;SDS011;19139;49.372;8.580;2022-12-18T02:35:19;12.80;;;9.73;;
32786;SDS011;19139;49.372;8.580;2022-12-18T02:37:49;10.13;;;8.37;;
32786;SDS011;19139;49.372;8.580;2022-12-18T02:40:17;13.17;;;8.83;;
32786;SDS011;19139;49.372;8.580;2022-12-18T02:42:46;9.70;;;8.17;;
32786;SDS011;19139;49.372;8.580;2022-12-18T02:45:12;11.30;;;9.23;;
32786;SDS011;19139;49.372;8.580;2022-12-18T02:47:40;11.13;;;9.63;;
32786;SDS011;19139;49.372;8.580;2022-12-18T02:50:13;10.07;;;9.00;;
32786;SDS011;19139;49.372;8.580;2022-12-18T02:58:16;9.93;;;8.43;;
32786;SDS011;19139;49.372;8.580;2022-12-18T03:01:13;11.93;;;9.50;;
32786;SDS011;19139;49.372;8.580;2022-12-18T03:03:50;10.57;;;8.63;;
32786;SDS011;19139;49.372;8.580;2022-12-18T03:06:26;11.40;;;8.87;;
32786;SDS011;19139;49.372;8.580;2022-12-18T03:09:01;11.00;;;8.80;;
32786;SDS011;19139;49.372;8.580;2022-12-18T03:11:32;9.63;;;8.63;;
32786;SDS011;19139;49.372;8.580;2022-12-18T03:14:22;12.13;;;9.07;;
32786;SDS011;19139;49.372;8.580;2022-12-18T03:16:52;11.30;;;9.13;;
32786;SDS011;19139;49.372;8.580;2022-12-18T03:19:22;10.57;;;8.33;;
32786;SDS011;19139;49.372;8.580;2022-12-18T03:21:53;10.23;;;9.10;;
32786;SDS011;19139;49.372;8.580;2022-12-18T03:24:22;10.87;;;9.13;;
32786;SDS011;19139;49.372;8.580;2022-12-18T03:26:52;10.20;;;8.40;;
32786;SDS011;19139;49.372;8.580;2022-12-18T03:29:21;10.63;;;8.50;;
32786;SDS011;19139;49.372;8.580;2022-12-18T03:32:07;9.73;;;8.27;;
32786;SDS011;19139;49.372;8.580;2022-12-18T03:34:37;11.97;;;8.97;;
32786;SDS011;19139;49.372;8.580;2022-12-18T03:37:06;12.80;;;9.57;;
32786;SDS011;19139;49.372;8.580;2022-12-18T03:39:34;10.63;;;8.53;;
32786;SDS011;19139;49.372;8.580;2022-12-18T03:42:10;11.80;;;9.30;;
32786;SDS011;19139;49.372;8.580;2022-12-18T03:45:02;11.07;;;8.53;;
32786;SDS011;19139;49.372;8.580;2022-12-18T03:47:46;12.13;;;9.07;;
32786;SDS011;19139;49.372;8.580;2022-12-18T03:50:21;10.07;;;8.93;;
32786;SDS011;19139;49.372;8.580;2022-12-18T03:52:57;10.40;;;8.80;;
32786;SDS011;19139;49.372;8.580;2022-12-18T03:55:25;10.47;;;8.77;;
32786;SDS011;19139;49.372;8.580;2022-12-18T03:57:54;10.80;;;9.20;;
32786;SDS011;19139;49.372;8.580;2022-12-18T04:00:22;12.20;;;9.37;;
32786;SDS011;19139;49.372;8.580;2022-12-18T04:02:50;9.70;;;8.20;;
32786;SDS011;19139;49.372;8.580;2022-12-18T04:05:20;10.00;;;8.80;;
32786;SDS011;19139;49.372;8.580;2022-12-18T04:07:48;11.50;;;9.50;;
32786;SDS011;19139;49.372;8.580;2022-12-18T04:10:17;10.97;;;8.90;;
32786;SDS011;19139;49.372;8.580;2022-12-18T04:12:44;10.23;;;8.60;;
32786;SDS011;19139;49.372;8.580;2022-12-18T04:15:11;10.50;;;9.00;;
32786;SDS011;19139;49.372;8.580;2022-12-18T04:17:38;10.20;;;9.03;;
32786;SDS011;19139;49.372;8.580;2022-12-18T04:20:15;12.10;;;8.83;;
32786;SDS011;19139;49.372;8.580;2022-12-18T04:22:42;9.63;;;8.63;;
32786;SDS011;19139;49.372;8.580;2022-12-18T04:25:09;10.73;;;9.13;;
32786;SDS011;19139;49.372;8.580;2022-12-18T04:27:35;10.30;;;8.83;;
32786;SDS011;19139;49.372;8.580;2022-12-18T04:30:02;12.00;;;9.37;;
32786;SDS011;19139;49.372;8.580;2022-12-18T04:32:29;10.73;;;8.73;;
32786;SDS011;19139;49.372;8.580;2022-12-18T04:34:55;11.23;;;9.07;;
32786;SDS011;19139;49.372;8.580;2022-12-18T04:37:22;10.50;;;8.43;;
32786;SDS011;19139;49.372;8.580;2022-12-18T04:39:49;10.93;;;8.90;;
32786;SDS011;19139;49.372;8.580;2022-12-18T04:42:15;11.53;;;9.17;;
32786;SDS011;19139;49.372;8.580;2022-12-18T04:44:42;11.20;;;8.57;;
32786;SDS011;19139;49.372;8.580;2022-12-18T04:47:08;10.53;;;8.63;;
32786;SDS011;19139;49.372;8.580;2022-12-18T04:49:35;10.53;;;8.63;;
32786;SDS011;19139;49.372;8.580;2022-12-18T04:52:02;9.87;;;8.87;;
32786;SDS011;19139;49.372;8.580;2022-12-18T04:54:28;10.23;;;8.80;;
32786;SDS011;19139;49.372;8.580;2022-12-18T04:56:55;11.77;;;8.20;;
32786;SDS011;19139;49.372;8.580;2022-12-18T04:59:21;9.40;;;8.40;;
32786;SDS011;19139;49.372;8.580;2022-12-18T05:01:48;10.13;;;8.50;;
32786;SDS011;19139;49.372;8.580;2022-12-18T05:04:15;10.20;;;9.03;;
32786;SDS011;19139;49.372;8.580;2022-12-18T05:06:43;10.07;;;8.57;;
32786;SDS011;19139;49.372;8.580;2022-12-18T05:09:09;10.07;;;8.57;;
32786;SDS011;19139;49.372;8.580;2022-12-18T05:11:36;10.43;;;8.57;;
32786;SDS011;19139;49.372;8.580;2022-12-18T05:14:03;10.57;;;8.47;;
32786;SDS011;19139;49.372;8.580;2022-12-18T05:16:29;9.47;;;8.50;;
32786;SDS011;19139;49.372;8.580;2022-12-18T05:18:56;10.77;;;8.80;;
32786;SDS011;19139;49.372;8.580;2022-12-18T05:21:23;10.47;;;8.53;;
32786;SDS011;19139;49.372;8.580;2022-12-18T05:23:49;9.30;;;8.33;;
32786;SDS011;19139;49.372;8.580;2022-12-18T05:26:16;9.87;;;8.43;;
32786;SDS011;19139;49.372;8.580;2022-12-18T05:28:44;10.17;;;8.83;;
32786;SDS011;19139;49.372;8.580;2022-12-18T05:31:12;9.53;;;8.03;;
32786;SDS011;19139;49.372;8.580;2022-12-18T05:33:39;9.87;;;8.87;;
32786;SDS011;19139;49.372;8.580;2022-12-18T05:36:07;11.10;;;8.80;;
32786;SDS011;19139;49.372;8.580;2022-12-18T05:38:35;11.57;;;8.87;;
32786;SDS011;19139;49.372;8.580;2022-12-18T05:41:03;10.47;;;9.13;;
32786;SDS011;19139;49.372;8.580;2022-12-18T05:43:31;11.10;;;8.63;;
32786;SDS011;19139;49.372;8.580;2022-12-18T05:46:02;10.30;;;8.57;;
32786;SDS011;19139;49.372;8.580;2022-12-18T05:48:33;9.77;;;8.23;;
32786;SDS011;19139;49.372;8.580;2022-12-18T05:51:07;9.83;;;8.37;;
32786;SDS011;19139;49.372;8.580;2022-12-18T05:53:35;9.97;;;8.67;;
32786;SDS011;19139;49.372;8.580;2022-12-18T05:56:04;10.53;;;8.63;;
32786;SDS011;19139;49.372;8.580;2022-12-18T05:58:33;10.73;;;8.20;;
32786;SDS011;19139;49.372;8.580;2022-12-18T06:01:07;10.20;;;8.17;;
32786;SDS011;19139;49.372;8.580;2022-12-18T06:03:37;9.30;;;7.80;;
32786;SDS011;19139;49.372;8.580;2022-12-18T06:06:03;11.10;;;9.27;;
32786;SDS011;19139;49.372;8.580;2022-12-18T06:08:38;9.83;;;8.17;;
32786;SDS011;19139;49.372;8.580;2022-12-18T06:11:11;9.90;;;8.90;;
32786;SDS011;19139;49.372;8.580;2022-12-18T06:13:38;9.40;;;7.97;;
32786;SDS011;19139;49.372;8.580;2022-12-18T06:16:05;9.57;;;8.27;;
32786;SDS011;19139;49.372;8.580;2022-12-18T06:18:32;10.63;;;8.53;;
32786;SDS011;19139;49.372;8.580;2022-12-18T06:20:59;10.80;;;9.03;;
32786;SDS011;19139;49.372;8.580;2022-12-18T06:23:26;10.50;;;8.73;;
32786;SDS011;19139;49.372;8.580;2022-12-18T06:25:53;10.87;;;8.50;;
32786;SDS011;19139;49.372;8.580;2022-12-18T06:28:20;9.73;;;8.40;;
32786;SDS011;19139;49.372;8.580;2022-12-18T06:30:47;10.43;;;8.50;;
32786;SDS011;19139;49.372;8.580;2022-12-18T06:33:14;9.90;;;8.43;;
32786;SDS011;19139;49.372;8.580;2022-12-18T06:35:41;9.40;;;7.80;;
32786;SDS011;19139;49.372;8.580;2022-12-18T06:38:08;11.63;;;8.67;;
32786;SDS011;19139;49.372;8.580;2022-12-18T06:40:35;9.43;;;7.70;;
32786;SDS011;19139;49.372;8.580;2022-12-18T06:43:03;9.97;;;8.70;;
32786;SDS011;19139;49.372;8.580;2022-12-18T06:45:30;9.13;;;8.10;;
32786;SDS011;19139;49.372;8.580;2022-12-18T06:47:57;9.67;;;8.67;;
32786;SDS011;19139;49.372;8.580;2022-12-18T06:50:24;9.47;;;8.43;;
32786;SDS011;19139;49.372;8.580;2022-12-18T06:52:50;9.20;;;7.97;;
32786;SDS011;19139;49.372;8.580;2022-12-18T06:55:17;8.07;;;7.10;;
32786;SDS011;19139;49.372;8.580;2022-12-18T06:57:44;9.97;;;8.43;;
32786;SDS011;19139;49.372;8.580;2022-12-18T07:00:11;9.60;;;8.17;;
32786;SDS011;19139;49.372;8.580;2022-12-18T07:02:37;10.17;;;8.20;;
32786;SDS011;19139;49.372;8.580;2022-12-18T07:05:04;8.47;;;7.37;;
32786;SDS011;19139;49.372;8.580;2022-12-18T07:07:36;10.13;;;8.57;;
32786;SDS011;19139;49.372;8.580;2022-12-18T07:10:03;8.87;;;7.97;;
32786;SDS011;19139;49.372;8.580;2022-12-18T07:12:30;9.73;;;8.43;;
32786;SDS011;19139;49.372;8.580;2022-12-18T07:14:56;9.60;;;8.47;;
32786;SDS011;19139;49.372;8.580;2022-12-18T07:17:23;10.23;;;9.07;;
32786;SDS011;19139;49.372;8.580;2022-12-18T07:19:49;9.67;;;8.43;;
32786;SDS011;19139;49.372;8.580;2022-12-18T07:22:16;10.03;;;8.97;;
32786;SDS011;19139;49.372;8.580;2022-12-18T07:24:42;9.40;;;8.40;;
32786;SDS011;19139;49.372;8.580;2022-12-18T07:27:09;9.60;;;8.60;;
32786;SDS011;19139;49.372;8.580;2022-12-18T07:29:35;9.33;;;8.17;;
32786;SDS011;19139;49.372;8.580;2022-12-18T07:32:03;8.93;;;8.03;;
32786;SDS011;19139;49.372;8.580;2022-12-18T07:34:30;9.13;;;8.17;;
32786;SDS011;19139;49.372;8.580;2022-12-18T07:36:56;10.20;;;8.33;;
32786;SDS011;19139;49.372;8.580;2022-12-18T07:39:23;11.47;;;8.73;;
32786;SDS011;19139;49.372;8.580;2022-12-18T07:41:49;9.57;;;8.57;;
32786;SDS011;19139;49.372;8.580;2022-12-18T07:44:34;8.97;;;7.77;;
32786;SDS011;19139;49.372;8.580;2022-12-18T07:47:01;11.53;;;8.63;;
32786;SDS011;19139;49.372;8.580;2022-12-18T07:49:34;11.17;;;9.37;;
32786;SDS011;19139;49.372;8.580;2022-12-18T07:52:00;9.37;;;8.13;;
32786;SDS011;19139;49.372;8.580;2022-12-18T07:54:27;11.17;;;8.70;;
32786;SDS011;19139;49.372;8.580;2022-12-18T07:56:54;10.17;;;8.43;;
32786;SDS011;19139;49.372;8.580;2022-12-18T07:59:21;10.67;;;8.63;;
32786;SDS011;19139;49.372;8.580;2022-12-18T08:01:47;11.57;;;9.03;;
32786;SDS011;19139;49.372;8.580;2022-12-18T08:04:14;10.13;;;9.13;;
32786;SDS011;19139;49.372;8.580;2022-12-18T08:06:41;10.83;;;9.03;;
32786;SDS011;19139;49.372;8.580;2022-12-18T08:09:13;10.00;;;9.00;;
32786;SDS011;19139;49.372;8.580;2022-12-18T08:11:39;10.03;;;8.60;;
32786;SDS011;19139;49.372;8.580;2022-12-18T08:14:06;9.43;;;8.43;;
32786;SDS011;19139;49.372;8.580;2022-12-18T08:16:33;9.97;;;8.97;;
32786;SDS011;19139;49.372;8.580;2022-12-18T08:19:00;10.60;;;8.60;;
32786;SDS011;19139;49.372;8.580;2022-12-18T08:21:27;9.77;;;8.77;;
32786;SDS011;19139;49.372;8.580;2022-12-18T08:23:56;12.10;;;8.50;;
32786;SDS011;19139;49.372;8.580;2022-12-18T08:26:25;10.43;;;8.97;;
32786;SDS011;19139;49.372;8.580;2022-12-18T08:28:54;10.60;;;9.00;;
32786;SDS011;19139;49.372;8.580;2022-12-18T08:31:21;12.90;;;9.33;;
32786;SDS011;19139;49.372;8.580;2022-12-18T08:33:50;12.60;;;9.90;;
32786;SDS011;19139;49.372;8.580;2022-12-18T08:36:19;11.10;;;8.73;;
32786;SDS011;19139;49.372;8.580;2022-12-18T08:38:46;12.23;;;8.90;;
32786;SDS011;19139;49.372;8.580;2022-12-18T08:41:13;10.30;;;9.20;;
32786;SDS011;19139;49.372;8.580;2022-12-18T08:43:41;11.67;;;9.20;;
32786;SDS011;19139;49.372;8.580;2022-12-18T08:46:31;10.80;;;9.03;;
32786;SDS011;19139;49.372;8.580;2022-12-18T08:49:00;13.80;;;9.73;;
32786;SDS011;19139;49.372;8.580;2022-12-18T08:51:27;12.53;;;9.00;;
32786;SDS011;19139;49.372;8.580;2022-12-18T08:53:54;11.77;;;9.33;;
32786;SDS011;19139;49.372;8.580;2022-12-18T08:56:21;13.30;;;10.13;;
32786;SDS011;19139;49.372;8.580;2022-12-18T08:58:47;13.90;;;9.70;;
32786;SDS011;19139;49.372;8.580;2022-12-18T09:01:18;13.37;;;10.10;;
32786;SDS011;19139;49.372;8.580;2022-12-18T09:03:44;16.13;;;10.13;;
32786;SDS011;19139;49.372;8.580;2022-12-18T09:06:13;12.47;;;9.37;;
32786;SDS011;19139;49.372;8.580;2022-12-18T09:08:44;11.70;;;10.07;;
32786;SDS011;19139;49.372;8.580;2022-12-18T09:11:12;11.90;;;9.40;;
32786;SDS011;19139;49.372;8.580;2022-12-18T09:13:50;14.97;;;10.50;;
32786;SDS011;19139;49.372;8.580;2022-12-18T09:16:18;14.17;;;9.87;;
32786;SDS011;19139;49.372;8.580;2022-12-18T09:18:46;14.00;;;10.27;;
32786;SDS011;19139;49.372;8.580;2022-12-18T09:21:14;15.67;;;11.67;;
32786;SDS011;19139;49.372;8.580;2022-12-18T09:23:42;13.17;;;9.90;;
32786;SDS011;19139;49.372;8.580;2022-12-18T09:26:09;16.37;;;12.07;;
32786;SDS011;19139;49.372;8.580;2022-12-18T09:28:36;14.20;;;10.23;;
32786;SDS011;19139;49.372;8.580;2022-12-18T09:31:04;13.40;;;10.90;;
32786;SDS011;19139;49.372;8.580;2022-12-18T09:33:35;13.97;;;10.40;;
32786;SDS011;19139;49.372;8.580;2022-12-18T09:36:03;14.83;;;10.30;;
32786;SDS011;19139;49.372;8.580;2022-12-18T09:38:31;17.07;;;10.47;;
32786;SDS011;19139;49.372;8.580;2022-12-18T09:40:59;12.87;;;11.20;;
32786;SDS011;19139;49.372;8.580;2022-12-18T09:43:47;14.80;;;10.83;;
32786;SDS011;19139;49.372;8.580;2022-12-18T09:46:25;18.47;;;10.27;;
32786;SDS011;19139;49.372;8.580;2022-12-18T09:48:56;15.20;;;10.00;;
32786;SDS011;19139;49.372;8.580;2022-12-18T09:51:32;14.23;;;10.50;;
32786;SDS011;19139;49.372;8.580;2022-12-18T09:54:04;14.50;;;10.43;;
32786;SDS011;19139;49.372;8.580;2022-12-18T09:56:38;21.60;;;11.30;;
32786;SDS011;19139;49.372;8.580;2022-12-18T09:59:15;13.33;;;9.43;;
32786;SDS011;19139;49.372;8.580;2022-12-18T10:01:47;17.17;;;10.53;;
32786;SDS011;19139;49.372;8.580;2022-12-18T10:04:13;14.20;;;10.93;;
32786;SDS011;19139;49.372;8.580;2022-12-18T10:09:32;18.47;;;10.93;;
32786;SDS011;19139;49.372;8.580;2022-12-18T10:12:17;14.63;;;10.37;;
32786;SDS011;19139;49.372;8.580;2022-12-18T10:20:16;16.50;;;11.03;;
32786;SDS011;19139;49.372;8.580;2022-12-18T10:25:46;16.27;;;10.43;;
32786;SDS011;19139;49.372;8.580;2022-12-18T10:28:12;15.67;;;10.43;;
32786;SDS011;19139;49.372;8.580;2022-12-18T10:30:40;15.20;;;9.80;;
32786;SDS011;19139;49.372;8.580;2022-12-18T10:33:18;18.67;;;11.60;;
32786;SDS011;19139;49.372;8.580;2022-12-18T10:35:48;20.13;;;11.20;;
32786;SDS011;19139;49.372;8.580;2022-12-18T10:40:59;16.50;;;11.53;;
32786;SDS011;19139;49.372;8.580;2022-12-18T10:43:33;16.27;;;10.40;;
32786;SDS011;19139;49.372;8.580;2022-12-18T10:46:07;15.77;;;10.40;;
32786;SDS011;19139;49.372;8.580;2022-12-18T10:56:45;15.03;;;11.13;;
32786;SDS011;19139;49.372;8.580;2022-12-18T10:59:13;15.10;;;10.50;;
32786;SDS011;19139;49.372;8.580;2022-12-18T11:01:54;16.00;;;11.10;;
32786;SDS011;19139;49.372;8.580;2022-12-18T11:04:26;13.30;;;9.47;;
32786;SDS011;19139;49.372;8.580;2022-12-18T11:06:55;16.23;;;10.33;;
32786;SDS011;19139;49.372;8.580;2022-12-18T11:09:26;13.33;;;10.47;;
32786;SDS011;19139;49.372;8.580;2022-12-18T11:11:58;13.37;;;10.00;;
32786;SDS011;19139;49.372;8.580;2022-12-18T11:14:34;14.40;;;10.23;;
32786;SDS011;19139;49.372;8.580;2022-12-18T11:17:19;13.27;;;10.77;;
32786;SDS011;19139;49.372;8.580;2022-12-18T11:19:53;13.37;;;9.80;;
32786;SDS011;19139;49.372;8.580;2022-12-18T11:28:00;12.27;;;9.20;;
32786;SDS011;19139;49.372;8.580;2022-12-18T11:30:30;15.50;;;10.07;;
32786;SDS011;19139;49.372;8.580;2022-12-18T11:33:13;13.37;;;9.67;;
32786;SDS011;19139;49.372;8.580;2022-12-18T11:35:51;16.37;;;10.13;;
32786;SDS011;19139;49.372;8.580;2022-12-18T11:38:24;14.47;;;10.00;;
32786;SDS011;19139;49.372;8.580;2022-12-18T11:40:56;12.47;;;9.43;;
32786;SDS011;19139;49.372;8.580;2022-12-18T11:44:09;11.87;;;9.57;;
32786;SDS011;19139;49.372;8.580;2022-12-18T11:46:30;15.33;;;9.53;;
32786;SDS011;19139;49.372;8.580;2022-12-18T11:52:22;24.83;;;10.37;;
32786;SDS011;19139;49.372;8.580;2022-12-18T11:54:53;14.33;;;9.70;;
32786;SDS011;19139;49.372;8.580;2022-12-18T11:59:55;12.90;;;9.47;;
32786;SDS011;19139;49.372;8.580;2022-12-18T12:06:20;11.97;;;9.20;;
32786;SDS011;19139;49.372;8.580;2022-12-18T12:08:26;14.47;;;9.97;;
32786;SDS011;19139;49.372;8.580;2022-12-18T12:16:45;37.80;;;29.50;;
32786;SDS011;19139;49.372;8.580;2022-12-18T12:19:25;35.77;;;27.47;;
32786;SDS011;19139;49.372;8.580;2022-12-18T12:25:36;62.97;;;53.43;;
32786;SDS011;19139;49.372;8.580;2022-12-18T12:34:09;43.03;;;33.10;;
32786;SDS011;19139;49.372;8.580;2022-12-18T12:37:04;39.50;;;31.73;;
32786;SDS011;19139;49.372;8.580;2022-12-18T12:39:40;36.47;;;30.93;;
32786;SDS011;19139;49.372;8.580;2022-12-18T12:45:28;38.43;;;29.27;;
32786;SDS011;19139;49.372;8.580;2022-12-18T12:47:59;34.97;;;28.47;;
32786;SDS011;19139;49.372;8.580;2022-12-18T12:50:29;32.60;;;26.93;;
32786;SDS011;19139;49.372;8.580;2022-12-18T12:53:00;29.13;;;24.87;;
32786;SDS011;19139;49.372;8.580;2022-12-18T12:55:28;33.80;;;25.57;;
32786;SDS011;19139;49.372;8.580;2022-12-18T12:57:58;27.83;;;22.80;;
32786;SDS011;19139;49.372;8.580;2022-12-18T13:00:30;29.20;;;22.03;;
32786;SDS011;19139;49.372;8.580;2022-12-18T13:03:08;31.23;;;23.50;;
32786;SDS011;19139;49.372;8.580;2022-12-18T13:06:00;26.70;;;21.80;;
32786;SDS011;19139;49.372;8.580;2022-12-18T13:08:51;21.13;;;15.80;;
32786;SDS011;19139;49.372;8.580;2022-12-18T13:11:34;23.87;;;15.83;;
32786;SDS011;19139;49.372;8.580;2022-12-18T13:14:44;23.37;;;14.67;;
32786;SDS011;19139;49.372;8.580;2022-12-18T13:17:29;23.83;;;13.47;;
32786;SDS011;19139;49.372;8.580;2022-12-18T13:22:35;18.93;;;13.10;;
32786;SDS011;19139;49.372;8.580;2022-12-18T13:25:50;18.40;;;12.53;;
32786;SDS011;19139;49.372;8.580;2022-12-18T13:28:08;24.07;;;12.60;;
32786;SDS011;19139;49.372;8.580;2022-12-18T13:40:58;22.57;;;13.10;;
32786;SDS011;19139;49.372;8.580;2022-12-18T13:43:33;21.80;;;11.93;;
32786;SDS011;19139;49.372;8.580;2022-12-18T13:46:22;23.63;;;13.03;;
32786;SDS011;19139;49.372;8.580;2022-12-18T13:48:56;22.07;;;12.10;;
32786;SDS011;19139;49.372;8.580;2022-12-18T13:51:27;20.93;;;12.67;;
32786;SDS011;19139;49.372;8.580;2022-12-18T13:56:32;16.23;;;11.93;;
32786;SDS011;19139;49.372;8.580;2022-12-18T14:04:30;17.57;;;10.80;;
32786;SDS011;19139;49.372;8.580;2022-12-18T14:09:47;17.13;;;10.47;;
32786;SDS011;19139;49.372;8.580;2022-12-18T14:12:22;18.60;;;11.20;;
32786;SDS011;19139;49.372;8.580;2022-12-18T14:17:57;19.97;;;12.07;;
32786;SDS011;19139;49.372;8.580;2022-12-18T14:20:31;17.80;;;10.53;;
32786;SDS011;19139;49.372;8.580;2022-12-18T14:22:58;18.87;;;11.80;;
32786;SDS011;19139;49.372;8.580;2022-12-18T14:25:27;17.30;;;11.10;;
32786;SDS011;19139;49.372;8.580;2022-12-18T14:28:10;15.17;;;10.43;;
32786;SDS011;19139;49.372;8.580;2022-12-18T14:30:41;16.40;;;9.47;;
32786;SDS011;19139;49.372;8.580;2022-12-18T14:33:10;17.50;;;10.83;;
32786;SDS011;19139;49.372;8.580;2022-12-18T14:38:21;17.93;;;11.17;;
32786;SDS011;19139;49.372;8.580;2022-12-18T14:41:02;13.87;;;10.27;;
32786;SDS011;19139;49.372;8.580;2022-12-18T14:43:36;15.60;;;11.00;;
32786;SDS011;19139;49.372;8.580;2022-12-18T14:48:54;16.00;;;10.30;;
32786;SDS011;19139;49.372;8.580;2022-12-18T14:51:22;15.57;;;11.67;;
32786;SDS011;19139;49.372;8.580;2022-12-18T14:53:53;17.00;;;10.63;;
32786;SDS011;19139;49.372;8.580;2022-12-18T14:56:35;15.70;;;10.97;;
32786;SDS011;19139;49.372;8.580;2022-12-18T14:59:19;13.63;;;10.40;;
32786;SDS011;19139;49.372;8.580;2022-12-18T15:01:59;16.87;;;10.80;;
32786;SDS011;19139;49.372;8.580;2022-12-18T15:04:44;14.43;;;10.93;;
32786;SDS011;19139;49.372;8.580;2022-12-18T15:12:41;13.53;;;9.83;;
32786;SDS011;19139;49.372;8.580;2022-12-18T15:20:41;12.33;;;9.77;;
32786;SDS011;19139;49.372;8.580;2022-12-18T15:23:20;14.67;;;10.00;;
32786;SDS011;19139;49.372;8.580;2022-12-18T15:25:55;16.57;;;10.80;;
32786;SDS011;19139;49.372;8.580;2022-12-18T15:28:36;14.63;;;11.00;;
32786;SDS011;19139;49.372;8.580;2022-12-18T15:33:36;13.20;;;10.27;;
32786;SDS011;19139;49.372;8.580;2022-12-18T15:36:09;12.87;;;10.00;;
32786;SDS011;19139;49.372;8.580;2022-12-18T15:38:37;13.30;;;10.13;;
32786;SDS011;19139;49.372;8.580;2022-12-18T15:41:04;13.23;;;9.57;;
32786;SDS011;19139;49.372;8.580;2022-12-18T15:43:39;13.10;;;10.60;;
32786;SDS011;19139;49.372;8.580;2022-12-18T15:46:08;12.43;;;9.60;;
32786;SDS011;19139;49.372;8.580;2022-12-18T15:48:41;11.67;;;9.63;;
32786;SDS011;19139;49.372;8.580;2022-12-18T15:51:11;12.87;;;9.53;;
32786;SDS011;19139;49.372;8.580;2022-12-18T15:53:39;12.80;;;10.07;;
32786;SDS011;19139;49.372;8.580;2022-12-18T15:56:10;13.77;;;9.63;;
32786;SDS011;19139;49.372;8.580;2022-12-18T15:58:57;12.37;;;9.43;;
32786;SDS011;19139;49.372;8.580;2022-12-18T16:01:26;11.67;;;9.03;;
32786;SDS011;19139;49.372;8.580;2022-12-18T16:03:54;14.73;;;10.33;;
32786;SDS011;19139;49.372;8.580;2022-12-18T16:06:22;15.07;;;10.30;;
32786;SDS011;19139;49.372;8.580;2022-12-18T16:08:49;11.90;;;9.70;;
32786;SDS011;19139;49.372;8.580;2022-12-18T16:11:23;11.60;;;9.53;;
32786;SDS011;19139;49.372;8.580;2022-12-18T16:14:17;11.40;;;9.40;;
32786;SDS011;19139;49.372;8.580;2022-12-18T16:16:55;13.60;;;9.37;;
32786;SDS011;19139;49.372;8.580;2022-12-18T16:19:23;10.50;;;9.23;;
32786;SDS011;19139;49.372;8.580;2022-12-18T16:21:51;12.80;;;9.53;;
32786;SDS011;19139;49.372;8.580;2022-12-18T16:24:21;12.17;;;9.47;;
32786;SDS011;19139;49.372;8.580;2022-12-18T16:26:50;11.57;;;9.10;;
32786;SDS011;19139;49.372;8.580;2022-12-18T16:29:20;9.97;;;8.70;;
32786;SDS011;19139;49.372;8.580;2022-12-18T16:31:50;11.40;;;9.27;;
32786;SDS011;19139;49.372;8.580;2022-12-18T16:34:19;10.87;;;9.23;;
32786;SDS011;19139;49.372;8.580;2022-12-18T16:36:54;13.70;;;9.67;;
32786;SDS011;19139;49.372;8.580;2022-12-18T16:39:30;11.97;;;9.93;;
32786;SDS011;19139;49.372;8.580;2022-12-18T16:41:57;11.37;;;9.57;;
32786;SDS011;19139;49.372;8.580;2022-12-18T16:44:27;11.60;;;9.70;;
32786;SDS011;19139;49.372;8.580;2022-12-18T16:46:53;10.80;;;9.43;;
32786;SDS011;19139;49.372;8.580;2022-12-18T16:49:20;10.50;;;9.00;;
32786;SDS011;19139;49.372;8.580;2022-12-18T16:51:47;14.30;;;9.37;;
32786;SDS011;19139;49.372;8.580;2022-12-18T16:54:14;10.40;;;9.07;;
32786;SDS011;19139;49.372;8.580;2022-12-18T16:56:44;11.17;;;9.13;;
32786;SDS011;19139;49.372;8.580;2022-12-18T16:59:15;12.67;;;9.87;;